sensor_id;sensor_type;location;lat;lon;timestamp;temperature;humidity
38239;DHT22;24035;48.900;9.188;2023-02-03T00:00:41;6.60;99.90
38239;DHT22;24035;48.900;9.188;2023-02-03T00:03:27;6.60;99.90
38239;DHT22;24035;48.900;9.188;2023-02-03T00:06:14;6.60;1.00
38239;DHT22;24035;48.900;9.188;2023-02-03T00:09:00;6.50;99.90
38239;DHT22;24035;48.900;9.188;2023-02-03T00:11:46;6.50;1.00
38239;DHT22;24035;48.900;9.188;2023-02-03T00:14:32;6.50;1.00
38239;DHT22;24035;48.900;9.188;2023-02-03T00:17:18;6.50;1.00
38239;DHT22;24035;48.900;9.188;2023-02-03T00:20:04;6.60;1.00
38239;DHT22;24035;48.900;9.188;2023-02-03T00:22:51;6.60;1.00
38239;DHT22;24035;48.900;9.188;2023-02-03T00:25:37;6.60;1.00
38239;DHT22;24035;48.900;9.188;2023-02-03T00:28:23;6.60;1.00
38239;DHT22;24035;48.900;9.188;2023-02-03T00:31:17;6.60;1.00
38239;DHT22;24035;48.900;9.188;2023-02-03T00:34:06;6.60;1.00
38239;DHT22;24035;48.900;9.188;2023-02-03T00:36:52;6.60;1.00
38239;DHT22;24035;48.900;9.188;2023-02-03T00:39:38;6.60;1.00
38239;DHT22;24035;48.900;9.188;2023-02-03T00:42:24;6.50;1.00
38239;DHT22;24035;48.900;9.188;2023-02-03T00:45:10;6.60;1.00
38239;DHT22;24035;48.900;9.188;2023-02-03T00:47:56;6.60;1.00
38239;DHT22;24035;48.900;9.188;2023-02-03T00:50:41;6.70;1.00
38239;DHT22;24035;48.900;9.188;2023-02-03T00:53:30;6.80;1.00
38239;DHT22;24035;48.900;9.188;2023-02-03T00:56:16;6.80;1.00
38239;DHT22;24035;48.900;9.188;2023-02-03T00:59:02;6.90;1.00
38239;DHT22;24035;48.900;9.188;2023-02-03T01:01:48;6.90;1.00
38239;DHT22;24035;48.900;9.188;2023-02-03T01:04:35;6.90;1.00
38239;DHT22;24035;48.900;9.188;2023-02-03T01:07:21;6.90;1.00
38239;DHT22;24035;48.900;9.188;2023-02-03T01:10:07;7.00;1.00
38239;DHT22;24035;48.900;9.188;2023-02-03T01:12:53;6.90;99.90
38239;DHT22;24035;48.900;9.188;2023-02-03T01:15:48;6.90;99.90
38239;DHT22;24035;48.900;9.188;2023-02-03T01:18:34;6.90;1.00
38239;DHT22;24035;48.900;9.188;2023-02-03T01:21:23;6.90;1.00
38239;DHT22;24035;48.900;9.188;2023-02-03T01:24:09;7.00;1.00
38239;DHT22;24035;48.900;9.188;2023-02-03T01:26:55;6.90;1.00
38239;DHT22;24035;48.900;9.188;2023-02-03T01:29:41;6.90;1.00
38239;DHT22;24035;48.900;9.188;2023-02-03T01:32:27;6.90;99.90
38239;DHT22;24035;48.900;9.188;2023-02-03T01:35:13;6.90;1.00
38239;DHT22;24035;48.900;9.188;2023-02-03T01:37:58;6.90;1.00
38239;DHT22;24035;48.900;9.188;2023-02-03T01:40:44;6.90;1.00
38239;DHT22;24035;48.900;9.188;2023-02-03T01:43:42;6.90;1.00
38239;DHT22;24035;48.900;9.188;2023-02-03T01:46:35;6.90;1.00
38239;DHT22;24035;48.900;9.188;2023-02-03T01:49:26;6.90;99.90
38239;DHT22;24035;48.900;9.188;2023-02-03T01:52:14;7.00;99.90
38239;DHT22;24035;48.900;9.188;2023-02-03T01:55:03;7.00;99.90
38239;DHT22;24035;48.900;9.188;2023-02-03T01:57:55;7.00;99.90
38239;DHT22;24035;48.900;9.188;2023-02-03T02:00:43;7.00;99.90
38239;DHT22;24035;48.900;9.188;2023-02-03T02:03:51;6.90;99.90
38239;DHT22;24035;48.900;9.188;2023-02-03T02:06:38;6.90;99.90
38239;DHT22;24035;48.900;9.188;2023-02-03T02:09:25;6.90;99.90
38239;DHT22;24035;48.900;9.188;2023-02-03T02:12:11;6.90;99.90
38239;DHT22;24035;48.900;9.188;2023-02-03T02:14:58;6.90;99.90
38239;DHT22;24035;48.900;9.188;2023-02-03T02:17:55;6.90;99.90
38239;DHT22;24035;48.900;9.188;2023-02-03T02:33:00;6.90;99.90
38239;DHT22;24035;48.900;9.188;2023-02-03T02:36:25;6.80;99.90
38239;DHT22;24035;48.900;9.188;2023-02-03T02:39:34;6.80;99.90
38239;DHT22;24035;48.900;9.188;2023-02-03T02:45:14;6.80;1.00
38239;DHT22;24035;48.900;9.188;2023-02-03T02:48:18;6.80;99.90
38239;DHT22;24035;48.900;9.188;2023-02-03T02:51:07;6.90;99.90
38239;DHT22;24035;48.900;9.188;2023-02-03T02:54:01;6.90;99.90
38239;DHT22;24035;48.900;9.188;2023-02-03T02:56:52;6.90;99.90
38239;DHT22;24035;48.900;9.188;2023-02-03T02:59:38;6.90;99.90
38239;DHT22;24035;48.900;9.188;2023-02-03T03:02:32;6.90;99.90
38239;DHT22;24035;48.900;9.188;2023-02-03T03:05:18;6.90;99.90
38239;DHT22;24035;48.900;9.188;2023-02-03T03:08:05;6.90;99.90
38239;DHT22;24035;48.900;9.188;2023-02-03T03:10:52;6.80;99.90
38239;DHT22;24035;48.900;9.188;2023-02-03T03:13:42;6.90;99.90
38239;DHT22;24035;48.900;9.188;2023-02-03T03:16:33;6.80;99.90
38239;DHT22;24035;48.900;9.188;2023-02-03T03:19:24;6.80;99.90
38239;DHT22;24035;48.900;9.188;2023-02-03T03:22:15;6.90;99.90
38239;DHT22;24035;48.900;9.188;2023-02-03T03:25:19;6.90;99.90
38239;DHT22;24035;48.900;9.188;2023-02-03T03:28:15;6.90;99.90
38239;DHT22;24035;48.900;9.188;2023-02-03T03:31:01;6.90;99.90
38239;DHT22;24035;48.900;9.188;2023-02-03T03:33:48;6.90;99.90
38239;DHT22;24035;48.900;9.188;2023-02-03T03:36:41;7.00;99.90
38239;DHT22;24035;48.900;9.188;2023-02-03T03:39:50;7.00;99.90
38239;DHT22;24035;48.900;9.188;2023-02-03T03:42:45;6.90;99.90
38239;DHT22;24035;48.900;9.188;2023-02-03T03:45:53;6.90;99.90
38239;DHT22;24035;48.900;9.188;2023-02-03T03:48:53;6.90;99.90
38239;DHT22;24035;48.900;9.188;2023-02-03T03:51:47;7.00;99.90
38239;DHT22;24035;48.900;9.188;2023-02-03T03:54:34;7.00;99.90
38239;DHT22;24035;48.900;9.188;2023-02-03T03:57:27;7.00;99.90
38239;DHT22;24035;48.900;9.188;2023-02-03T04:00:17;7.00;99.90
38239;DHT22;24035;48.900;9.188;2023-02-03T04:03:14;7.00;99.90
38239;DHT22;24035;48.900;9.188;2023-02-03T04:06:01;6.90;99.90
38239;DHT22;24035;48.900;9.188;2023-02-03T04:08:47;6.90;99.90
38239;DHT22;24035;48.900;9.188;2023-02-03T04:11:33;7.00;99.90
38239;DHT22;24035;48.900;9.188;2023-02-03T04:14:37;6.90;99.90
38239;DHT22;24035;48.900;9.188;2023-02-03T04:17:23;6.90;1.00
38239;DHT22;24035;48.900;9.188;2023-02-03T04:20:10;6.70;1.00
38239;DHT22;24035;48.900;9.188;2023-02-03T04:22:57;6.70;99.90
38239;DHT22;24035;48.900;9.188;2023-02-03T04:25:43;6.60;99.90
38239;DHT22;24035;48.900;9.188;2023-02-03T04:28:29;6.60;99.90
38239;DHT22;24035;48.900;9.188;2023-02-03T04:31:15;6.60;1.00
38239;DHT22;24035;48.900;9.188;2023-02-03T04:34:01;6.50;1.00
38239;DHT22;24035;48.900;9.188;2023-02-03T04:36:47;6.50;1.00
38239;DHT22;24035;48.900;9.188;2023-02-03T04:39:33;6.40;1.00
38239;DHT22;24035;48.900;9.188;2023-02-03T04:42:19;6.40;99.90
38239;DHT22;24035;48.900;9.188;2023-02-03T04:45:06;6.40;99.90
38239;DHT22;24035;48.900;9.188;2023-02-03T04:47:53;6.40;99.90
38239;DHT22;24035;48.900;9.188;2023-02-03T04:50:39;6.30;1.00
38239;DHT22;24035;48.900;9.188;2023-02-03T04:53:25;6.30;1.00
38239;DHT22;24035;48.900;9.188;2023-02-03T04:56:10;6.30;1.00
38239;DHT22;24035;48.900;9.188;2023-02-03T04:58:56;6.30;1.00
38239;DHT22;24035;48.900;9.188;2023-02-03T05:01:42;6.30;1.00
38239;DHT22;24035;48.900;9.188;2023-02-03T05:04:28;6.30;1.00
38239;DHT22;24035;48.900;9.188;2023-02-03T05:07:14;6.30;1.00
38239;DHT22;24035;48.900;9.188;2023-02-03T05:10:00;6.30;1.00
38239;DHT22;24035;48.900;9.188;2023-02-03T05:12:46;6.20;21.00
38239;DHT22;24035;48.900;9.188;2023-02-03T05:15:32;6.30;99.90
38239;DHT22;24035;48.900;9.188;2023-02-03T05:18:18;6.20;99.90
38239;DHT22;24035;48.900;9.188;2023-02-03T05:21:05;6.10;1.00
38239;DHT22;24035;48.900;9.188;2023-02-03T05:23:51;6.10;1.00
38239;DHT22;24035;48.900;9.188;2023-02-03T05:26:37;6.10;1.00
38239;DHT22;24035;48.900;9.188;2023-02-03T05:29:23;6.10;1.00
38239;DHT22;24035;48.900;9.188;2023-02-03T05:32:08;6.00;1.00
38239;DHT22;24035;48.900;9.188;2023-02-03T05:34:54;6.00;52.70
38239;DHT22;24035;48.900;9.188;2023-02-03T05:37:43;5.90;99.90
38239;DHT22;24035;48.900;9.188;2023-02-03T05:40:30;6.00;99.90
38239;DHT22;24035;48.900;9.188;2023-02-03T05:43:35;6.00;1.60
38239;DHT22;24035;48.900;9.188;2023-02-03T05:46:21;6.10;1.00
38239;DHT22;24035;48.900;9.188;2023-02-03T05:49:07;6.10;1.00
38239;DHT22;24035;48.900;9.188;2023-02-03T05:51:54;6.20;99.90
38239;DHT22;24035;48.900;9.188;2023-02-03T05:54:40;6.30;99.90
38239;DHT22;24035;48.900;9.188;2023-02-03T05:57:26;6.30;99.90
38239;DHT22;24035;48.900;9.188;2023-02-03T06:00:12;6.20;99.90
38239;DHT22;24035;48.900;9.188;2023-02-03T06:03:00;6.20;99.90
38239;DHT22;24035;48.900;9.188;2023-02-03T06:05:47;6.20;99.90
38239;DHT22;24035;48.900;9.188;2023-02-03T06:08:33;6.20;99.90
38239;DHT22;24035;48.900;9.188;2023-02-03T06:11:19;6.20;99.90
38239;DHT22;24035;48.900;9.188;2023-02-03T06:14:05;6.30;97.60
38239;DHT22;24035;48.900;9.188;2023-02-03T06:16:51;6.20;1.00
38239;DHT22;24035;48.900;9.188;2023-02-03T06:19:37;6.30;1.00
38239;DHT22;24035;48.900;9.188;2023-02-03T06:22:23;6.30;1.00
38239;DHT22;24035;48.900;9.188;2023-02-03T06:25:09;6.30;1.00
38239;DHT22;24035;48.900;9.188;2023-02-03T06:27:55;6.30;1.00
38239;DHT22;24035;48.900;9.188;2023-02-03T06:30:41;6.30;1.00
38239;DHT22;24035;48.900;9.188;2023-02-03T06:33:27;6.30;1.00
38239;DHT22;24035;48.900;9.188;2023-02-03T06:36:13;6.30;1.00
38239;DHT22;24035;48.900;9.188;2023-02-03T06:38:59;6.30;1.00
38239;DHT22;24035;48.900;9.188;2023-02-03T06:41:45;6.30;1.00
38239;DHT22;24035;48.900;9.188;2023-02-03T06:44:31;6.30;1.00
38239;DHT22;24035;48.900;9.188;2023-02-03T06:47:17;6.20;99.90
38239;DHT22;24035;48.900;9.188;2023-02-03T06:50:03;6.20;99.90
38239;DHT22;24035;48.900;9.188;2023-02-03T06:52:49;6.10;99.90
38239;DHT22;24035;48.900;9.188;2023-02-03T06:55:35;6.00;1.00
38239;DHT22;24035;48.900;9.188;2023-02-03T06:58:21;5.90;1.00
38239;DHT22;24035;48.900;9.188;2023-02-03T07:01:07;5.90;74.80
38239;DHT22;24035;48.900;9.188;2023-02-03T07:03:52;5.80;99.90
38239;DHT22;24035;48.900;9.188;2023-02-03T07:06:42;5.90;99.90
38239;DHT22;24035;48.900;9.188;2023-02-03T07:09:28;5.80;99.90
38239;DHT22;24035;48.900;9.188;2023-02-03T07:12:14;5.80;99.90
38239;DHT22;24035;48.900;9.188;2023-02-03T07:15:00;5.80;99.90
38239;DHT22;24035;48.900;9.188;2023-02-03T07:17:47;5.80;99.90
38239;DHT22;24035;48.900;9.188;2023-02-03T07:20:38;5.80;99.90
38239;DHT22;24035;48.900;9.188;2023-02-03T07:23:24;5.90;99.90
38239;DHT22;24035;48.900;9.188;2023-02-03T07:26:10;5.90;99.90
38239;DHT22;24035;48.900;9.188;2023-02-03T07:28:56;5.90;99.90
38239;DHT22;24035;48.900;9.188;2023-02-03T07:31:44;5.90;99.90
38239;DHT22;24035;48.900;9.188;2023-02-03T07:34:30;5.90;99.90
38239;DHT22;24035;48.900;9.188;2023-02-03T07:37:16;5.90;99.90
38239;DHT22;24035;48.900;9.188;2023-02-03T07:40:02;5.90;99.90
38239;DHT22;24035;48.900;9.188;2023-02-03T07:42:48;5.90;99.90
38239;DHT22;24035;48.900;9.188;2023-02-03T07:45:34;5.90;99.90
38239;DHT22;24035;48.900;9.188;2023-02-03T07:48:20;5.90;1.00
38239;DHT22;24035;48.900;9.188;2023-02-03T07:51:06;5.90;99.90
38239;DHT22;24035;48.900;9.188;2023-02-03T07:53:52;6.00;1.00
38239;DHT22;24035;48.900;9.188;2023-02-03T07:56:38;5.90;1.00
38239;DHT22;24035;48.900;9.188;2023-02-03T07:59:24;6.00;1.00
38239;DHT22;24035;48.900;9.188;2023-02-03T08:02:10;6.00;1.00
38239;DHT22;24035;48.900;9.188;2023-02-03T08:04:56;6.00;1.00
38239;DHT22;24035;48.900;9.188;2023-02-03T08:07:42;6.10;1.00
38239;DHT22;24035;48.900;9.188;2023-02-03T08:10:28;6.10;1.00
38239;DHT22;24035;48.900;9.188;2023-02-03T08:13:14;6.20;1.00
38239;DHT22;24035;48.900;9.188;2023-02-03T08:16:00;6.30;1.00
38239;DHT22;24035;48.900;9.188;2023-02-03T08:18:46;6.40;1.00
38239;DHT22;24035;48.900;9.188;2023-02-03T08:21:32;6.50;1.00
38239;DHT22;24035;48.900;9.188;2023-02-03T08:24:18;6.60;99.90
38239;DHT22;24035;48.900;9.188;2023-02-03T08:27:04;6.60;20.20
38239;DHT22;24035;48.900;9.188;2023-02-03T08:29:50;6.70;1.00
38239;DHT22;24035;48.900;9.188;2023-02-03T08:32:36;6.70;1.00
38239;DHT22;24035;48.900;9.188;2023-02-03T08:35:22;6.70;1.00
38239;DHT22;24035;48.900;9.188;2023-02-03T08:38:08;6.70;1.00
38239;DHT22;24035;48.900;9.188;2023-02-03T08:40:54;6.80;1.00
38239;DHT22;24035;48.900;9.188;2023-02-03T08:43:40;6.90;1.00
38239;DHT22;24035;48.900;9.188;2023-02-03T08:46:26;7.00;1.00
38239;DHT22;24035;48.900;9.188;2023-02-03T08:49:12;7.00;1.00
38239;DHT22;24035;48.900;9.188;2023-02-03T08:51:58;7.00;1.00
38239;DHT22;24035;48.900;9.188;2023-02-03T08:54:44;6.90;99.90
38239;DHT22;24035;48.900;9.188;2023-02-03T08:57:34;6.90;1.00
38239;DHT22;24035;48.900;9.188;2023-02-03T09:00:21;6.90;1.00
38239;DHT22;24035;48.900;9.188;2023-02-03T09:03:07;7.10;1.00
38239;DHT22;24035;48.900;9.188;2023-02-03T09:05:53;7.20;1.00
38239;DHT22;24035;48.900;9.188;2023-02-03T09:08:39;7.20;99.90
38239;DHT22;24035;48.900;9.188;2023-02-03T09:11:24;7.20;99.90
38239;DHT22;24035;48.900;9.188;2023-02-03T09:14:10;7.10;99.90
38239;DHT22;24035;48.900;9.188;2023-02-03T09:16:56;7.10;1.00
38239;DHT22;24035;48.900;9.188;2023-02-03T09:19:42;7.00;1.00
38239;DHT22;24035;48.900;9.188;2023-02-03T09:22:28;7.10;1.00
38239;DHT22;24035;48.900;9.188;2023-02-03T09:25:14;7.10;99.90
38239;DHT22;24035;48.900;9.188;2023-02-03T09:28:01;7.20;99.90
38239;DHT22;24035;48.900;9.188;2023-02-03T09:30:47;7.30;1.00
38239;DHT22;24035;48.900;9.188;2023-02-03T09:33:33;7.40;1.00
38239;DHT22;24035;48.900;9.188;2023-02-03T09:36:19;7.40;1.00
38239;DHT22;24035;48.900;9.188;2023-02-03T09:39:05;7.60;1.00
38239;DHT22;24035;48.900;9.188;2023-02-03T09:48:08;7.50;99.90
38239;DHT22;24035;48.900;9.188;2023-02-03T09:50:56;7.60;99.90
38239;DHT22;24035;48.900;9.188;2023-02-03T09:53:47;7.70;99.90
38239;DHT22;24035;48.900;9.188;2023-02-03T09:56:35;7.80;1.00
38239;DHT22;24035;48.900;9.188;2023-02-03T09:59:22;7.90;1.00
38239;DHT22;24035;48.900;9.188;2023-02-03T10:02:18;8.00;1.00
38239;DHT22;24035;48.900;9.188;2023-02-03T10:11:39;8.20;1.00
38239;DHT22;24035;48.900;9.188;2023-02-03T10:17:58;8.30;99.90
38239;DHT22;24035;48.900;9.188;2023-02-03T10:20:52;8.30;99.90
38239;DHT22;24035;48.900;9.188;2023-02-03T10:23:40;8.40;1.00
38239;DHT22;24035;48.900;9.188;2023-02-03T10:26:27;8.30;99.90
38239;DHT22;24035;48.900;9.188;2023-02-03T10:29:20;8.00;99.90
38239;DHT22;24035;48.900;9.188;2023-02-03T10:32:12;8.00;1.00
38239;DHT22;24035;48.900;9.188;2023-02-03T10:34:59;8.00;1.00
38239;DHT22;24035;48.900;9.188;2023-02-03T10:37:50;8.00;99.90
38239;DHT22;24035;48.900;9.188;2023-02-03T10:40:39;8.10;99.90
38239;DHT22;24035;48.900;9.188;2023-02-03T10:43:27;8.10;99.90
38239;DHT22;24035;48.900;9.188;2023-02-03T10:46:34;8.30;99.90
38239;DHT22;24035;48.900;9.188;2023-02-03T10:49:25;8.60;1.00
38239;DHT22;24035;48.900;9.188;2023-02-03T10:52:25;8.60;1.00
38239;DHT22;24035;48.900;9.188;2023-02-03T10:58:24;8.60;1.00
38239;DHT22;24035;48.900;9.188;2023-02-03T11:01:12;8.60;1.00
38239;DHT22;24035;48.900;9.188;2023-02-03T11:04:02;8.50;1.00
38239;DHT22;24035;48.900;9.188;2023-02-03T11:06:58;8.60;1.00
38239;DHT22;24035;48.900;9.188;2023-02-03T11:09:46;8.70;1.00
38239;DHT22;24035;48.900;9.188;2023-02-03T11:12:32;8.70;1.00
38239;DHT22;24035;48.900;9.188;2023-02-03T11:15:18;8.70;1.00
38239;DHT22;24035;48.900;9.188;2023-02-03T11:18:04;8.80;1.00
38239;DHT22;24035;48.900;9.188;2023-02-03T11:20:50;9.00;1.00
38239;DHT22;24035;48.900;9.188;2023-02-03T11:23:42;8.90;1.00
38239;DHT22;24035;48.900;9.188;2023-02-03T11:26:39;8.90;1.00
38239;DHT22;24035;48.900;9.188;2023-02-03T11:29:29;8.80;99.90
38239;DHT22;24035;48.900;9.188;2023-02-03T11:32:32;8.80;99.90
38239;DHT22;24035;48.900;9.188;2023-02-03T11:38:30;8.60;1.00
38239;DHT22;24035;48.900;9.188;2023-02-03T11:41:19;8.60;1.00
38239;DHT22;24035;48.900;9.188;2023-02-03T11:44:11;8.60;1.00
38239;DHT22;24035;48.900;9.188;2023-02-03T11:47:02;8.60;1.00
38239;DHT22;24035;48.900;9.188;2023-02-03T11:56:10;8.70;99.90
38239;DHT22;24035;48.900;9.188;2023-02-03T12:04:54;8.90;99.90
38239;DHT22;24035;48.900;9.188;2023-02-03T12:26:24;8.50;1.00
38239;DHT22;24035;48.900;9.188;2023-02-03T12:29:40;8.50;1.00
38239;DHT22;24035;48.900;9.188;2023-02-03T12:32:39;8.60;1.00
38239;DHT22;24035;48.900;9.188;2023-02-03T12:38:59;8.50;99.90
38239;DHT22;24035;48.900;9.188;2023-02-03T12:41:55;8.50;1.00
38239;DHT22;24035;48.900;9.188;2023-02-03T12:44:47;8.50;99.90
38239;DHT22;24035;48.900;9.188;2023-02-03T12:50:41;8.40;99.90
38239;DHT22;24035;48.900;9.188;2023-02-03T12:53:35;8.40;99.90
38239;DHT22;24035;48.900;9.188;2023-02-03T12:56:36;8.40;1.00
38239;DHT22;24035;48.900;9.188;2023-02-03T12:59:27;8.40;1.00
38239;DHT22;24035;48.900;9.188;2023-02-03T13:02:25;8.30;99.90
38239;DHT22;24035;48.900;9.188;2023-02-03T13:05:31;8.30;99.90
38239;DHT22;24035;48.900;9.188;2023-02-03T13:12:30;8.30;99.90
38239;DHT22;24035;48.900;9.188;2023-02-03T13:15:44;8.40;99.90
38239;DHT22;24035;48.900;9.188;2023-02-03T13:18:35;8.30;1.00
38239;DHT22;24035;48.900;9.188;2023-02-03T13:21:22;8.30;99.90
38239;DHT22;24035;48.900;9.188;2023-02-03T13:24:10;8.30;99.90
38239;DHT22;24035;48.900;9.188;2023-02-03T13:30:23;8.20;1.00
38239;DHT22;24035;48.900;9.188;2023-02-03T13:42:31;8.30;1.00
38239;DHT22;24035;48.900;9.188;2023-02-03T13:45:30;8.30;1.00
38239;DHT22;24035;48.900;9.188;2023-02-03T13:48:23;8.30;1.00
38239;DHT22;24035;48.900;9.188;2023-02-03T13:51:13;8.40;1.00
38239;DHT22;24035;48.900;9.188;2023-02-03T13:54:06;8.30;1.00
38239;DHT22;24035;48.900;9.188;2023-02-03T13:57:04;8.30;1.00
38239;DHT22;24035;48.900;9.188;2023-02-03T13:59:51;8.30;1.00
38239;DHT22;24035;48.900;9.188;2023-02-03T14:02:51;8.30;1.00
38239;DHT22;24035;48.900;9.188;2023-02-03T14:05:40;8.20;1.00
38239;DHT22;24035;48.900;9.188;2023-02-03T14:20:43;8.20;1.00
38239;DHT22;24035;48.900;9.188;2023-02-03T14:23:39;8.20;1.00
38239;DHT22;24035;48.900;9.188;2023-02-03T14:29:33;8.40;1.00
38239;DHT22;24035;48.900;9.188;2023-02-03T14:32:20;8.30;1.00
38239;DHT22;24035;48.900;9.188;2023-02-03T14:35:15;8.30;1.00
38239;DHT22;24035;48.900;9.188;2023-02-03T14:38:08;8.30;1.00
38239;DHT22;24035;48.900;9.188;2023-02-03T14:40:59;8.30;1.00
38239;DHT22;24035;48.900;9.188;2023-02-03T14:44:06;8.20;1.00
38239;DHT22;24035;48.900;9.188;2023-02-03T14:47:09;8.20;1.00
38239;DHT22;24035;48.900;9.188;2023-02-03T14:59:09;8.10;1.00
38239;DHT22;24035;48.900;9.188;2023-02-03T15:04:48;8.10;1.00
38239;DHT22;24035;48.900;9.188;2023-02-03T15:07:41;8.10;1.00
38239;DHT22;24035;48.900;9.188;2023-02-03T15:10:41;8.00;1.00
38239;DHT22;24035;48.900;9.188;2023-02-03T15:13:29;8.00;3.30
38239;DHT22;24035;48.900;9.188;2023-02-03T15:16:19;8.10;7.80
38239;DHT22;24035;48.900;9.188;2023-02-03T15:19:16;8.00;1.00
38239;DHT22;24035;48.900;9.188;2023-02-03T15:22:17;8.00;9.30
38239;DHT22;24035;48.900;9.188;2023-02-03T15:25:15;8.00;9.30
38239;DHT22;24035;48.900;9.188;2023-02-03T15:28:10;8.00;30.70
38239;DHT22;24035;48.900;9.188;2023-02-03T15:31:01;8.00;99.00
38239;DHT22;24035;48.900;9.188;2023-02-03T15:33:49;8.00;44.80
38239;DHT22;24035;48.900;9.188;2023-02-03T15:36:44;8.00;97.30
38239;DHT22;24035;48.900;9.188;2023-02-03T15:42:36;7.90;99.90
38239;DHT22;24035;48.900;9.188;2023-02-03T15:45:27;7.90;99.90
38239;DHT22;24035;48.900;9.188;2023-02-03T15:47:58;7.80;1.00
38239;DHT22;24035;48.900;9.188;2023-02-03T15:50:33;7.80;1.00
38239;DHT22;24035;48.900;9.188;2023-02-03T15:53:13;7.70;1.00
38239;DHT22;24035;48.900;9.188;2023-02-03T15:55:50;7.60;99.90
38239;DHT22;24035;48.900;9.188;2023-02-03T15:58:23;7.50;1.00
38239;DHT22;24035;48.900;9.188;2023-02-03T16:01:04;7.40;1.00
38239;DHT22;24035;48.900;9.188;2023-02-03T16:03:43;7.20;99.90
38239;DHT22;24035;48.900;9.188;2023-02-03T16:06:16;7.20;1.00
38239;DHT22;24035;48.900;9.188;2023-02-03T16:08:44;7.10;99.90
38239;DHT22;24035;48.900;9.188;2023-02-03T16:13:51;7.00;1.00
38239;DHT22;24035;48.900;9.188;2023-02-03T16:16:49;7.00;1.00
38239;DHT22;24035;48.900;9.188;2023-02-03T16:19:22;6.90;68.00
38239;DHT22;24035;48.900;9.188;2023-02-03T16:30:14;6.80;1.00
38239;DHT22;24035;48.900;9.188;2023-02-03T16:33:04;6.70;46.80
38239;DHT22;24035;48.900;9.188;2023-02-03T16:35:56;6.70;99.90
38239;DHT22;24035;48.900;9.188;2023-02-03T16:38:50;6.70;99.90
38239;DHT22;24035;48.900;9.188;2023-02-03T16:41:35;6.70;99.90
38239;DHT22;24035;48.900;9.188;2023-02-03T16:44:20;6.70;99.90
38239;DHT22;24035;48.900;9.188;2023-02-03T16:47:29;6.70;71.40
38239;DHT22;24035;48.900;9.188;2023-02-03T16:50:21;6.70;1.00
38239;DHT22;24035;48.900;9.188;2023-02-03T16:53:12;6.70;1.00
38239;DHT22;24035;48.900;9.188;2023-02-03T16:55:38;6.70;1.00
38239;DHT22;24035;48.900;9.188;2023-02-03T16:58:04;6.80;1.00
38239;DHT22;24035;48.900;9.188;2023-02-03T17:00:30;6.70;1.00
38239;DHT22;24035;48.900;9.188;2023-02-03T17:02:56;6.80;1.00
38239;DHT22;24035;48.900;9.188;2023-02-03T17:05:21;6.80;1.00
38239;DHT22;24035;48.900;9.188;2023-02-03T17:07:47;6.80;1.00
38239;DHT22;24035;48.900;9.188;2023-02-03T17:10:13;6.90;1.00
38239;DHT22;24035;48.900;9.188;2023-02-03T17:12:39;6.90;99.90
38239;DHT22;24035;48.900;9.188;2023-02-03T17:15:05;6.90;99.90
38239;DHT22;24035;48.900;9.188;2023-02-03T17:17:31;6.90;99.90
38239;DHT22;24035;48.900;9.188;2023-02-03T17:19:57;6.90;1.00
38239;DHT22;24035;48.900;9.188;2023-02-03T17:22:24;6.90;1.00
38239;DHT22;24035;48.900;9.188;2023-02-03T17:24:51;7.00;1.00
38239;DHT22;24035;48.900;9.188;2023-02-03T17:27:17;7.00;1.00
38239;DHT22;24035;48.900;9.188;2023-02-03T17:29:43;7.00;1.00
38239;DHT22;24035;48.900;9.188;2023-02-03T17:32:09;7.10;1.00
38239;DHT22;24035;48.900;9.188;2023-02-03T17:34:39;7.10;1.00
38239;DHT22;24035;48.900;9.188;2023-02-03T17:37:05;7.10;99.90
38239;DHT22;24035;48.900;9.188;2023-02-03T17:39:31;7.10;99.90
38239;DHT22;24035;48.900;9.188;2023-02-03T17:41:56;7.10;99.90
38239;DHT22;24035;48.900;9.188;2023-02-03T17:44:22;7.20;99.90
38239;DHT22;24035;48.900;9.188;2023-02-03T17:46:48;7.20;99.90
38239;DHT22;24035;48.900;9.188;2023-02-03T17:49:13;7.20;99.90
38239;DHT22;24035;48.900;9.188;2023-02-03T17:51:39;7.30;23.90
38239;DHT22;24035;48.900;9.188;2023-02-03T17:54:05;7.30;1.00
38239;DHT22;24035;48.900;9.188;2023-02-03T17:56:32;7.30;1.00
38239;DHT22;24035;48.900;9.188;2023-02-03T17:59:01;7.30;1.00
38239;DHT22;24035;48.900;9.188;2023-02-03T18:01:27;7.40;1.00
38239;DHT22;24035;48.900;9.188;2023-02-03T18:03:59;7.30;1.00
38239;DHT22;24035;48.900;9.188;2023-02-03T18:06:27;7.30;1.00
38239;DHT22;24035;48.900;9.188;2023-02-03T18:08:53;7.30;1.00
38239;DHT22;24035;48.900;9.188;2023-02-03T18:11:25;7.30;1.00
38239;DHT22;24035;48.900;9.188;2023-02-03T18:13:51;7.20;99.90
38239;DHT22;24035;48.900;9.188;2023-02-03T18:16:20;7.20;99.90
38239;DHT22;24035;48.900;9.188;2023-02-03T18:18:47;7.20;1.00
38239;DHT22;24035;48.900;9.188;2023-02-03T18:21:14;7.20;1.00
38239;DHT22;24035;48.900;9.188;2023-02-03T18:23:41;7.10;1.00
38239;DHT22;24035;48.900;9.188;2023-02-03T18:26:08;7.10;1.00
38239;DHT22;24035;48.900;9.188;2023-02-03T18:28:34;7.10;99.90
38239;DHT22;24035;48.900;9.188;2023-02-03T18:31:15;7.10;1.00
38239;DHT22;24035;48.900;9.188;2023-02-03T18:33:42;7.00;1.00
38239;DHT22;24035;48.900;9.188;2023-02-03T18:36:09;7.00;1.00
38239;DHT22;24035;48.900;9.188;2023-02-03T18:38:35;7.00;1.00
38239;DHT22;24035;48.900;9.188;2023-02-03T18:41:15;7.10;1.00
38239;DHT22;24035;48.900;9.188;2023-02-03T18:43:41;7.10;1.00
38239;DHT22;24035;48.900;9.188;2023-02-03T18:46:08;7.10;1.00
38239;DHT22;24035;48.900;9.188;2023-02-03T18:48:35;7.10;1.00
38239;DHT22;24035;48.900;9.188;2023-02-03T18:51:01;7.10;1.00
38239;DHT22;24035;48.900;9.188;2023-02-03T18:53:28;7.10;1.00
38239;DHT22;24035;48.900;9.188;2023-02-03T18:55:54;7.10;1.00
38239;DHT22;24035;48.900;9.188;2023-02-03T18:58:20;7.10;99.90
38239;DHT22;24035;48.900;9.188;2023-02-03T19:00:46;7.00;99.90
38239;DHT22;24035;48.900;9.188;2023-02-03T19:03:11;7.00;1.00
38239;DHT22;24035;48.900;9.188;2023-02-03T19:05:41;7.00;1.00
38239;DHT22;24035;48.900;9.188;2023-02-03T19:08:07;7.00;1.00
38239;DHT22;24035;48.900;9.188;2023-02-03T19:10:33;7.00;1.00
38239;DHT22;24035;48.900;9.188;2023-02-03T19:12:59;6.90;1.00
38239;DHT22;24035;48.900;9.188;2023-02-03T19:15:24;6.90;1.00
38239;DHT22;24035;48.900;9.188;2023-02-03T19:17:50;6.90;1.00
38239;DHT22;24035;48.900;9.188;2023-02-03T19:20:16;6.90;47.90
38239;DHT22;24035;48.900;9.188;2023-02-03T19:22:41;6.90;99.90
38239;DHT22;24035;48.900;9.188;2023-02-03T19:25:07;6.90;99.90
38239;DHT22;24035;48.900;9.188;2023-02-03T19:27:33;6.90;99.90
38239;DHT22;24035;48.900;9.188;2023-02-03T19:29:58;6.90;1.00
38239;DHT22;24035;48.900;9.188;2023-02-03T19:32:24;6.90;1.00
38239;DHT22;24035;48.900;9.188;2023-02-03T19:34:50;6.90;1.00
38239;DHT22;24035;48.900;9.188;2023-02-03T19:37:15;6.90;1.00
38239;DHT22;24035;48.900;9.188;2023-02-03T19:39:41;6.90;1.00
38239;DHT22;24035;48.900;9.188;2023-02-03T19:42:07;6.90;99.90
38239;DHT22;24035;48.900;9.188;2023-02-03T19:44:33;6.90;99.90
38239;DHT22;24035;48.900;9.188;2023-02-03T19:47:10;6.90;99.90
38239;DHT22;24035;48.900;9.188;2023-02-03T19:49:36;6.90;99.90
38239;DHT22;24035;48.900;9.188;2023-02-03T19:52:01;7.00;11.60
38239;DHT22;24035;48.900;9.188;2023-02-03T19:54:27;7.00;1.00
38239;DHT22;24035;48.900;9.188;2023-02-03T19:56:53;7.00;1.00
38239;DHT22;24035;48.900;9.188;2023-02-03T19:59:18;7.00;1.00